Time;durP1;ratioP1;P1;durP2;ratioP2;P2;SDS_P1;SDS_P2;PMS_P1;PMS_P2;Temp;Humidity;BMP_temperature;BMP_pressure;BME280_temperature;BME280_humidity;BME280_pressure;Samples;Min_cycle;Max_cycle;Signal;HPM_P1;HPM_P2
2024/04/02 00:03:09;;;;;;;;;;;8.80;99.90;;;;;;6721843;88;20085;-77
2024/04/02 00:13:10;;;;;;;;;;;8.80;99.90;;;;;;6733898;88;20082;-79
2024/04/02 00:23:11;;;;;;;;;;;8.80;99.90;;;;;;6736817;88;20194;-79
2024/04/02 00:33:12;;;;;;;;;;;8.70;99.90;;;;;;6735170;88;20100;-78
2024/04/02 00:43:12;;;;;;;;;;;8.70;99.90;;;;;;6739493;88;20067;-79
2024/04/02 00:53:14;;;;;;;;;;;8.70;99.90;;;;;;6738281;88;20067;-78
2024/04/02 01:03:15;;;;;;;;;;;8.50;99.90;;;;;;6738337;88;20095;-78
2024/04/02 01:13:15;;;;;;;;;;;8.50;99.90;;;;;;6738948;88;20597;-77
2024/04/02 01:23:15;;;;;;;;;;;8.60;99.90;;;;;;6739371;88;20058;-77
2024/04/02 01:33:17;;;;;;;;;;;8.50;99.90;;;;;;6726830;88;20239;-77
2024/04/02 01:43:17;;;;;;;;;;;8.50;99.90;;;;;;6729859;88;20054;-78
2024/04/02 01:53:38;;;;;;;;;;;8.50;99.90;;;;;;6738070;77;20545;-77
2024/04/02 02:03:39;;;;;;;;;;;8.40;99.90;;;;;;6718583;88;20050;-77
2024/04/02 02:13:40;;;;;;;;;;;8.50;99.90;;;;;;6716371;88;20176;-77
2024/04/02 02:23:44;;;;;;;;;;;8.50;99.90;;;;;;6714764;88;20034;-76
2024/04/02 02:33:48;;;;;;;;;;;8.50;99.90;;;;;;6720710;88;20096;-77
2024/04/02 02:43:48;;;;;;;;;;;8.40;99.90;;;;;;6718840;88;20048;-77
2024/04/02 02:53:49;;;;;;;;;;;8.30;99.90;;;;;;6719862;88;20521;-77
2024/04/02 03:03:51;;;;;;;;;;;8.50;99.90;;;;;;6724350;88;20059;-78
2024/04/02 03:13:51;;;;;;;;;;;8.70;99.90;;;;;;6723871;88;20182;-78
2024/04/02 03:23:54;;;;;;;;;;;8.70;99.90;;;;;;6727978;88;20050;-78
2024/04/02 03:33:57;;;;;;;;;;;8.70;99.90;;;;;;6726065;88;20050;-77
2024/04/02 03:43:57;;;;;;;;;;;8.60;99.90;;;;;;6722349;88;20094;-77
2024/04/02 03:53:57;;;;;;;;;;;8.60;99.90;;;;;;6720706;88;20125;-77
2024/04/02 04:03:58;;;;;;;;;;;8.70;99.90;;;;;;6727548;88;20222;-78
2024/04/02 04:14:01;;;;;;;;;;;8.70;99.90;;;;;;6722862;88;20141;-77
2024/04/02 04:24:02;;;;;;;;;;;8.80;99.90;;;;;;6721609;88;20067;-77
2024/04/02 04:34:03;;;;;;;;;;;8.80;99.90;;;;;;6726687;88;20080;-79
2024/04/02 04:44:03;;;;;;;;;;;8.90;99.90;;;;;;6728911;88;20225;-79
2024/04/02 04:54:04;;;;;;;;;;;8.90;99.90;;;;;;6718670;88;20071;-77
2024/04/02 05:04:04;;;;;;;;;;;9.00;99.90;;;;;;6717503;88;20171;-79
2024/04/02 05:14:05;;;;;;;;;;;8.90;99.90;;;;;;6737637;88;20055;-78
2024/04/02 05:24:05;;;;;;;;;;;9.20;99.90;;;;;;6727852;88;20067;-77
2024/04/02 05:34:06;;;;;;;;;;;9.30;99.90;;;;;;6734296;88;20141;-78
2024/04/02 05:44:06;;;;;;;;;;;9.40;99.90;;;;;;6726931;88;20095;-79
2024/04/02 05:54:07;;;;;;;;;;;9.40;99.90;;;;;;6723097;88;20559;-78
2024/04/02 06:04:08;;;;;;;;;;;9.50;99.90;;;;;;6726308;88;20102;-78
2024/04/02 06:14:08;;;;;;;;;;;9.60;99.90;;;;;;6726099;88;20066;-78
2024/04/02 06:24:09;;;;;;;;;;;9.70;99.90;;;;;;6725599;88;20058;-78
2024/04/02 06:34:10;;;;;;;;;;;9.90;99.90;;;;;;6722030;88;20060;-79
2024/04/02 06:44:10;;;;;;;;;;;10.10;99.90;;;;;;6723353;88;20534;-78
2024/04/02 06:54:11;;;;;;;;;;;10.10;99.90;;;;;;6715996;88;20111;-78
2024/04/02 07:04:11;;;;;;;;;;;10.50;99.90;;;;;;6717422;88;20055;-76
2024/04/02 07:14:11;;;;;;;;;;;10.70;99.90;;;;;;6725013;88;20043;-76
2024/04/02 07:24:12;;;;;;;;;;;10.70;99.90;;;;;;6723726;88;20513;-77
2024/04/02 07:34:12;;;;;;;;;;;11.10;99.90;;;;;;6721225;88;20055;-75
2024/04/02 07:44:13;;;;;;;;;;;11.70;99.90;;;;;;6725439;88;20073;-77
2024/04/02 07:54:14;;;;;;;;;;;12.90;99.90;;;;;;6734071;77;20496;-77
2024/04/02 08:04:14;;;;;;;;;;;12.40;99.90;;;;;;6736744;88;20079;-78
2024/04/02 08:14:15;;;;;;;;;;;12.00;99.90;;;;;;6739056;88;20047;-78
2024/04/02 08:24:15;;;;;;;;;;;12.40;99.90;;;;;;6733105;88;20052;-77
2024/04/02 08:34:16;;;;;;;;;;;12.80;99.90;;;;;;6728724;88;20072;-78
2024/04/02 08:44:17;;;;;;;;;;;12.80;99.90;;;;;;6729704;88;20120;-78
2024/04/02 08:54:17;;;;;;;;;;;12.80;99.90;;;;;;6725906;88;20042;-78
2024/04/02 09:04:20;;;;;;;;;;;13.70;99.90;;;;;;6726114;88;20078;-78
2024/04/02 09:14:20;;;;;;;;;;;14.10;99.90;;;;;;6733057;88;20058;-78
2024/04/02 09:24:21;;;;;;;;;;;13.20;99.90;;;;;;6729468;88;20081;-78
2024/04/02 09:34:22;;;;;;;;;;;13.10;99.90;;;;;;6726556;88;20661;-77
2024/04/02 09:44:24;;;;;;;;;;;13.00;99.90;;;;;;6727096;88;20044;-78
2024/04/02 09:54:24;;;;;;;;;;;12.70;99.90;;;;;;6725965;88;20146;-78
2024/04/02 10:04:25;;;;;;;;;;;12.60;99.90;;;;;;6725131;88;20181;-77
2024/04/02 10:14:26;;;;;;;;;;;12.80;99.90;;;;;;6725202;88;20051;-78
2024/04/02 10:24:27;;;;;;;;;;;12.90;99.90;;;;;;6725538;88;20090;-77
2024/04/02 10:34:28;;;;;;;;;;;13.00;99.90;;;;;;6726958;88;20094;-77
2024/04/02 10:44:28;;;;;;;;;;;13.00;99.90;;;;;;6727476;88;20078;-77
2024/04/02 10:54:29;;;;;;;;;;;13.40;99.90;;;;;;6730198;88;20615;-80
2024/04/02 11:04:29;;;;;;;;;;;14.40;99.90;;;;;;6722615;88;20049;-79
2024/04/02 11:14:30;;;;;;;;;;;14.20;99.90;;;;;;6726046;88;20142;-78
2024/04/02 11:35:00;;;;;;;;;;;14.40;99.90;;;;;;6725063;88;20106;-78
2024/04/02 11:45:00;;;;;;;;;;;14.40;99.90;;;;;;6725069;88;20067;-78
2024/04/02 11:55:01;;;;;;;;;;;13.70;99.90;;;;;;6725045;88;20482;-78
2024/04/02 12:05:02;;;;;;;;;;;13.30;99.90;;;;;;6723839;88;20117;-78
2024/04/02 12:15:06;;;;;;;;;;;13.30;99.90;;;;;;6723813;88;20073;-79
2024/04/02 12:25:06;;;;;;;;;;;13.40;99.90;;;;;;6722614;88;20182;-78
2024/04/02 12:35:07;;;;;;;;;;;13.60;99.90;;;;;;6722012;88;20140;-79
2024/04/02 12:45:08;;;;;;;;;;;13.50;99.90;;;;;;6733500;88;20240;-80
2024/04/02 12:55:08;;;;;;;;;;;13.60;99.90;;;;;;6721756;88;20062;-78
2024/04/02 13:05:09;;;;;;;;;;;12.90;99.90;;;;;;6722434;88;20043;-78
2024/04/02 13:15:09;;;;;;;;;;;12.90;99.90;;;;;;6724305;88;20083;-79
2024/04/02 13:25:10;;;;;;;;;;;13.50;99.90;;;;;;6723715;88;20202;-79
2024/04/02 13:35:10;;;;;;;;;;;13.90;99.90;;;;;;6722698;88;20058;-79
2024/04/02 13:45:11;;;;;;;;;;;13.80;99.90;;;;;;6723214;88;20082;-79
2024/04/02 14:05:59;;;;;;;;;;;12.90;99.90;;;;;;6638194;89;20117;-79
2024/04/02 14:16:00;;;;;;;;;;;11.90;99.90;;;;;;6637189;89;20067;-79
2024/04/02 14:26:01;;;;;;;;;;;12.30;99.90;;;;;;6638224;88;20071;-78
2024/04/02 14:36:05;;;;;;;;;;;12.80;99.90;;;;;;6640516;89;20084;-77
2024/04/02 14:46:05;;;;;;;;;;;12.80;99.90;;;;;;6647290;89;20066;-78
2024/04/02 14:56:06;;;;;;;;;;;12.80;99.90;;;;;;6644135;89;20091;-78
2024/04/02 15:06:10;;;;;;;;;;;13.10;99.90;;;;;;6638193;89;20127;-78
2024/04/02 15:16:10;;;;;;;;;;;14.50;99.90;;;;;;6636874;89;20497;-78
2024/04/02 15:26:11;;;;;;;;;;;14.60;99.90;;;;;;6637323;89;20054;-78
2024/04/02 15:36:11;;;;;;;;;;;14.30;99.90;;;;;;6644044;89;20063;-78
2024/04/02 15:46:12;;;;;;;;;;;14.10;99.90;;;;;;6634163;88;20058;-78
2024/04/02 15:56:12;;;;;;;;;;;14.20;99.90;;;;;;6637871;89;20066;-78
2024/04/02 16:06:14;;;;;;;;;;;14.30;99.90;;;;;;6636558;89;20146;-78
2024/04/02 16:16:15;;;;;;;;;;;14.30;99.90;;;;;;6635178;89;20078;-78
2024/04/02 16:26:15;;;;;;;;;;;14.20;99.90;;;;;;6634050;89;20182;-79
2024/04/02 16:36:16;;;;;;;;;;;14.30;99.90;;;;;;6638075;88;20128;-77
2024/04/02 16:46:17;;;;;;;;;;;14.30;99.90;;;;;;6637496;89;20143;-78
2024/04/02 16:56:17;;;;;;;;;;;14.20;99.90;;;;;;6637413;89;20264;-77
2024/04/02 17:06:18;;;;;;;;;;;14.10;99.90;;;;;;6636479;89;20069;-77
2024/04/02 17:16:19;;;;;;;;;;;13.90;99.90;;;;;;6647231;88;20065;-77
2024/04/02 17:26:19;;;;;;;;;;;13.80;99.90;;;;;;6641419;89;20545;-78
2024/04/02 17:36:19;;;;;;;;;;;13.70;99.90;;;;;;6639694;89;20117;-77
2024/04/02 17:46:20;;;;;;;;;;;13.60;99.90;;;;;;6652484;88;20084;-78
2024/04/02 17:56:20;;;;;;;;;;;13.50;99.90;;;;;;6636962;89;20075;-78
2024/04/02 18:06:22;;;;;;;;;;;13.50;99.90;;;;;;6637494;89;20119;-78
2024/04/02 18:16:22;;;;;;;;;;;13.30;99.90;;;;;;6641362;89;20070;-78
2024/04/02 18:26:23;;;;;;;;;;;13.20;99.90;;;;;;6636909;89;20521;-78
2024/04/02 18:36:24;;;;;;;;;;;13.10;99.90;;;;;;6630430;89;20067;-78
2024/04/02 18:46:26;;;;;;;;;;;13.10;99.90;;;;;;6634404;89;20065;-78
2024/04/02 18:56:26;;;;;;;;;;;13.00;99.90;;;;;;6633195;89;20079;-77
2024/04/02 19:06:30;;;;;;;;;;;12.80;99.90;;;;;;6634589;89;20107;-78
2024/04/02 19:16:30;;;;;;;;;;;12.70;99.90;;;;;;6648417;89;20201;-78
2024/04/02 19:26:31;;;;;;;;;;;12.50;99.90;;;;;;6639583;89;20058;-78
2024/04/02 19:36:31;;;;;;;;;;;12.30;99.90;;;;;;6646656;89;20054;-78
2024/04/02 19:46:32;;;;;;;;;;;12.00;99.90;;;;;;6639257;88;20615;-78
2024/04/02 19:56:32;;;;;;;;;;;11.80;99.90;;;;;;6719565;78;20080;-77
2024/04/02 20:06:33;;;;;;;;;;;11.70;99.90;;;;;;6740695;88;20071;-78
2024/04/02 20:16:33;;;;;;;;;;;11.50;99.90;;;;;;6754875;88;20176;-77
2024/04/02 20:26:34;;;;;;;;;;;11.40;99.90;;;;;;6743036;88;20088;-77
2024/04/02 20:36:35;;;;;;;;;;;11.60;99.90;;;;;;6738270;88;20668;-78
2024/04/02 20:46:35;;;;;;;;;;;11.40;99.90;;;;;;6726968;88;20066;-77
2024/04/02 20:56:35;;;;;;;;;;;11.30;99.90;;;;;;6738061;88;20580;-79
2024/04/02 21:06:36;;;;;;;;;;;11.30;99.90;;;;;;6739110;88;20045;-80
2024/04/02 21:16:36;;;;;;;;;;;11.30;99.90;;;;;;6739502;88;20065;-77
2024/04/02 21:26:37;;;;;;;;;;;11.40;99.90;;;;;;6738441;88;20076;-78
2024/04/02 21:36:37;;;;;;;;;;;11.40;99.90;;;;;;6741052;88;20050;-78
2024/04/02 21:46:38;;;;;;;;;;;11.30;99.90;;;;;;6739140;88;20086;-79
2024/04/02 21:56:38;;;;;;;;;;;11.40;99.90;;;;;;6738910;88;20205;-79
2024/04/02 22:06:39;;;;;;;;;;;11.30;99.90;;;;;;6738633;88;20066;-78
2024/04/02 22:16:39;;;;;;;;;;;11.20;99.90;;;;;;6734954;88;20159;-78
2024/04/02 22:26:39;;;;;;;;;;;11.30;99.90;;;;;;6737325;88;20083;-78
2024/04/02 22:36:40;;;;;;;;;;;11.30;99.90;;;;;;6739331;88;20060;-80
2024/04/02 22:46:40;;;;;;;;;;;11.30;99.90;;;;;;6739701;88;20065;-78
2024/04/02 22:56:41;;;;;;;;;;;11.30;99.90;;;;;;6739009;88;20087;-79
2024/04/02 23:06:41;;;;;;;;;;;11.30;99.90;;;;;;6735978;88;20054;-77
2024/04/02 23:16:42;;;;;;;;;;;11.50;99.90;;;;;;6738430;88;20088;-77
2024/04/02 23:26:42;;;;;;;;;;;11.40;99.90;;;;;;6718894;88;20069;-77
2024/04/02 23:36:43;;;;;;;;;;;11.40;99.90;;;;;;6733426;88;20058;-78
2024/04/02 23:46:43;;;;;;;;;;;11.30;99.90;;;;;;6736412;88;20528;-77
2024/04/02 23:56:44;;;;;;;;;;;11.20;99.90;;;;;;6737768;88;20058;-78
